Time;durP1;ratioP1;P1;durP2;ratioP2;P2;SDS_P1;SDS_P2;PMS_P1;PMS_P2;Temp;Humidity;BMP_temperature;BMP_pressure;BME280_temperature;BME280_humidity;BME280_pressure;Samples;Min_cycle;Max_cycle;Signal;HPM_P1;HPM_P2
2023/11/22 00:01:22;;;;;;;28.13;16.33;;;;;;;;;;4385291;32;318413;-88
2023/11/22 00:03:50;;;;;;;22.43;13.93;;;;;;;;;;4373165;32;317894;-88
2023/11/22 00:06:20;;;;;;;24.60;13.97;;;;;;;;;;4385647;32;318085;-88
2023/11/22 00:08:48;;;;;;;25.47;14.47;;;;;;;;;;4374159;32;318256;-86
2023/11/22 00:11:15;;;;;;;23.60;14.50;;;;;;;;;;4385104;32;318725;-85
2023/11/22 00:13:42;;;;;;;26.33;14.73;;;;;;;;;;4375284;32;318424;-87
2023/11/22 00:16:11;;;;;;;23.30;15.13;;;;;;;;;;4383149;32;318534;-86
2023/11/22 00:18:40;;;;;;;24.30;15.20;;;;;;;;;;4360210;32;318014;-87
2023/11/22 00:21:08;;;;;;;26.13;15.43;;;;;;;;;;4385561;32;318244;-85
2023/11/22 00:23:35;;;;;;;21.63;14.57;;;;;;;;;;4375178;32;317997;-85
2023/11/22 00:26:03;;;;;;;33.07;16.43;;;;;;;;;;4383962;32;318377;-86
2023/11/22 00:28:31;;;;;;;18.57;13.07;;;;;;;;;;4385456;32;318480;-86
2023/11/22 00:30:58;;;;;;;29.13;15.70;;;;;;;;;;4374165;32;318135;-85
2023/11/22 00:33:27;;;;;;;23.23;12.13;;;;;;;;;;4385232;32;318237;-85
2023/11/22 00:35:56;;;;;;;20.43;12.50;;;;;;;;;;4374799;32;318490;-86
2023/11/22 00:38:24;;;;;;;24.60;14.07;;;;;;;;;;4385009;32;335944;-85
2023/11/22 00:40:51;;;;;;;25.53;15.17;;;;;;;;;;4374694;32;318135;-85
2023/11/22 00:43:19;;;;;;;25.87;16.00;;;;;;;;;;4384211;32;318267;-85
2023/11/22 00:45:46;;;;;;;23.33;14.87;;;;;;;;;;4374599;32;318430;-85
2023/11/22 00:48:14;;;;;;;25.67;15.60;;;;;;;;;;4385751;32;318442;-84
2023/11/22 00:50:43;;;;;;;24.90;15.60;;;;;;;;;;4372878;32;318109;-85
2023/11/22 00:53:10;;;;;;;20.83;14.37;;;;;;;;;;4385453;32;318391;-85
2023/11/22 00:55:38;;;;;;;23.97;14.70;;;;;;;;;;4370943;32;318223;-88
2023/11/22 00:58:05;;;;;;;24.97;14.77;;;;;;;;;;4385379;32;318052;-84
2023/11/22 01:00:33;;;;;;;24.60;15.93;;;;;;;;;;4384658;32;317952;-85
2023/11/22 01:03:00;;;;;;;31.60;16.53;;;;;;;;;;4371861;32;417002;-85
2023/11/22 01:05:30;;;;;;;28.90;16.70;;;;;;;;;;4384561;32;318237;-85
2023/11/22 01:08:00;;;;;;;27.87;15.87;;;;;;;;;;4374456;32;318452;-85
2023/11/22 01:10:27;;;;;;;26.13;15.50;;;;;;;;;;4384588;32;318378;-85
2023/11/22 01:12:54;;;;;;;24.47;14.60;;;;;;;;;;4374733;32;318377;-85
2023/11/22 01:15:23;;;;;;;27.73;16.30;;;;;;;;;;4383942;32;338681;-84
2023/11/22 01:17:50;;;;;;;23.33;15.57;;;;;;;;;;4373941;32;318218;-85
2023/11/22 01:20:18;;;;;;;22.80;13.93;;;;;;;;;;4377138;32;318053;-85
2023/11/22 01:22:46;;;;;;;22.47;14.50;;;;;;;;;;4375302;32;318131;-85
2023/11/22 01:25:15;;;;;;;21.93;14.30;;;;;;;;;;4387141;32;318573;-85
2023/11/22 01:27:42;;;;;;;23.57;16.20;;;;;;;;;;4375697;32;318163;-85
2023/11/22 01:30:12;;;;;;;23.00;14.07;;;;;;;;;;4386414;32;318254;-84
2023/11/22 01:32:39;;;;;;;28.20;12.30;;;;;;;;;;4372920;32;319786;-86
2023/11/22 01:35:07;;;;;;;23.73;14.07;;;;;;;;;;4387191;32;317638;-88
2023/11/22 01:37:35;;;;;;;25.07;13.47;;;;;;;;;;4376807;32;318124;-89
2023/11/22 01:40:03;;;;;;;24.43;12.83;;;;;;;;;;4384912;32;318644;-89
2023/11/22 01:42:32;;;;;;;15.87;10.77;;;;;;;;;;4387400;32;318458;-89
2023/11/22 01:45:00;;;;;;;19.53;11.03;;;;;;;;;;4374234;32;417817;-88
2023/11/22 01:47:28;;;;;;;16.53;11.23;;;;;;;;;;4388211;32;317975;-89
2023/11/22 01:49:56;;;;;;;20.27;11.90;;;;;;;;;;4376557;32;318626;-90
2023/11/22 01:52:24;;;;;;;17.93;12.53;;;;;;;;;;4388852;32;333399;-88
2023/11/22 01:54:52;;;;;;;15.73;10.50;;;;;;;;;;4379958;32;318068;-88
2023/11/22 01:57:21;;;;;;;16.73;11.30;;;;;;;;;;4389943;32;318242;-87
2023/11/22 01:59:50;;;;;;;18.13;11.87;;;;;;;;;;4380019;32;318177;-88
2023/11/22 02:02:20;;;;;;;51.40;22.83;;;;;;;;;;4390649;32;317982;-89
2023/11/22 02:04:48;;;;;;;32.23;17.70;;;;;;;;;;4378447;32;322395;-88
2023/11/22 02:07:16;;;;;;;38.90;17.57;;;;;;;;;;4389877;32;317898;-86
2023/11/22 02:09:45;;;;;;;33.13;17.60;;;;;;;;;;4379927;32;318342;-87
2023/11/22 02:12:14;;;;;;;38.73;21.47;;;;;;;;;;4391580;32;318738;-87
2023/11/22 02:14:41;;;;;;;44.60;21.37;;;;;;;;;;4378709;32;318059;-87
2023/11/22 02:17:11;;;;;;;39.67;20.53;;;;;;;;;;4389725;32;318154;-88
2023/11/22 02:19:39;;;;;;;42.17;22.00;;;;;;;;;;4377518;32;318754;-87
2023/11/22 02:22:06;;;;;;;36.57;19.80;;;;;;;;;;4392040;32;317943;-89
2023/11/22 02:24:36;;;;;;;35.57;19.93;;;;;;;;;;4391410;32;317967;-88
2023/11/22 02:27:03;;;;;;;37.00;19.53;;;;;;;;;;4389670;32;317742;-89
2023/11/22 02:29:31;;;;;;;37.93;19.90;;;;;;;;;;4389219;32;317629;-88
2023/11/22 02:31:59;;;;;;;27.67;16.03;;;;;;;;;;4361712;32;318321;-88
2023/11/22 02:34:27;;;;;;;25.97;14.73;;;;;;;;;;4382530;32;318249;-88
2023/11/22 02:36:54;;;;;;;18.77;11.63;;;;;;;;;;4380502;32;318863;-87
2023/11/22 02:39:22;;;;;;;22.60;14.03;;;;;;;;;;4399852;32;318217;-89
2023/11/22 02:41:54;;;;;;;22.97;14.37;;;;;;;;;;4387354;32;318574;-86
2023/11/22 02:44:22;;;;;;;28.43;14.73;;;;;;;;;;4400541;32;317725;-89
2023/11/22 02:46:51;;;;;;;21.27;13.10;;;;;;;;;;4384935;32;317731;-89
2023/11/22 02:49:19;;;;;;;20.73;12.80;;;;;;;;;;4390826;32;317785;-91
2023/11/22 02:51:47;;;;;;;23.17;12.63;;;;;;;;;;4374711;32;318950;-85
2023/11/22 02:54:15;;;;;;;22.03;13.50;;;;;;;;;;4390847;32;318310;-87
2023/11/22 02:56:42;;;;;;;27.20;16.57;;;;;;;;;;4379699;32;318188;-85
2023/11/22 02:59:13;;;;;;;20.27;14.03;;;;;;;;;;4386773;32;318268;-85
2023/11/22 03:01:42;;;;;;;25.07;16.10;;;;;;;;;;4374032;32;317940;-85
2023/11/22 03:04:10;;;;;;;25.87;16.77;;;;;;;;;;4385826;32;317605;-85
2023/11/22 03:06:37;;;;;;;25.10;16.00;;;;;;;;;;4374772;32;318121;-85
2023/11/22 03:09:05;;;;;;;31.57;14.70;;;;;;;;;;4386231;32;318196;-85
2023/11/22 03:11:33;;;;;;;24.23;14.90;;;;;;;;;;4385887;32;318228;-85
2023/11/22 03:14:03;;;;;;;28.87;15.40;;;;;;;;;;4373257;32;420488;-85
2023/11/22 03:16:33;;;;;;;26.83;14.13;;;;;;;;;;4386174;32;318473;-85
2023/11/22 03:19:01;;;;;;;27.63;13.97;;;;;;;;;;4372307;32;416664;-85
2023/11/22 03:21:29;;;;;;;18.83;11.97;;;;;;;;;;4385401;32;317666;-88
2023/11/22 03:23:58;;;;;;;19.83;12.53;;;;;;;;;;4375060;32;317720;-85
2023/11/22 03:26:25;;;;;;;20.97;12.10;;;;;;;;;;4385158;32;318042;-85
2023/11/22 03:28:53;;;;;;;20.77;12.30;;;;;;;;;;4375298;32;318682;-85
2023/11/22 03:31:21;;;;;;;21.43;12.17;;;;;;;;;;4385305;32;318119;-85
2023/11/22 03:33:50;;;;;;;15.70;12.00;;;;;;;;;;4374300;32;318515;-85
2023/11/22 03:36:18;;;;;;;20.10;13.27;;;;;;;;;;4384680;32;318394;-86
2023/11/22 03:38:45;;;;;;;19.73;13.07;;;;;;;;;;4372272;32;357878;-86
2023/11/22 03:41:13;;;;;;;21.63;12.77;;;;;;;;;;4379388;32;318223;-87
2023/11/22 03:43:40;;;;;;;17.43;12.13;;;;;;;;;;4372017;32;318241;-85
2023/11/22 03:46:08;;;;;;;17.80;11.50;;;;;;;;;;4386492;32;318020;-86
2023/11/22 03:48:35;;;;;;;25.23;12.70;;;;;;;;;;4375251;32;318277;-85
2023/11/22 03:51:04;;;;;;;20.57;12.87;;;;;;;;;;4388497;32;318460;-86
2023/11/22 03:53:32;;;;;;;26.17;13.10;;;;;;;;;;4388265;32;317908;-86
2023/11/22 03:55:59;;;;;;;18.40;12.17;;;;;;;;;;4374323;32;420228;-86
2023/11/22 03:58:27;;;;;;;21.57;13.47;;;;;;;;;;4390080;32;317973;-85
2023/11/22 04:00:55;;;;;;;20.53;12.07;;;;;;;;;;4379441;32;318316;-85
2023/11/22 04:03:22;;;;;;;22.23;12.83;;;;;;;;;;4388276;32;318213;-85
2023/11/22 04:05:51;;;;;;;27.47;15.77;;;;;;;;;;4379926;32;317628;-86
2023/11/22 04:08:20;;;;;;;31.53;19.10;;;;;;;;;;4390243;32;318222;-85
2023/11/22 04:13:26;;;;;;;25.33;15.60;;;;;;;;;;4820619;27;315515;-88
2023/11/22 04:15:54;;;;;;;35.60;17.60;;;;;;;;;;4386691;32;318172;-87
2023/11/22 04:18:23;;;;;;;35.63;19.57;;;;;;;;;;4395797;32;318756;-86
2023/11/22 04:20:52;;;;;;;28.13;17.47;;;;;;;;;;4387288;32;317874;-87
2023/11/22 04:25:58;;;;;;;29.30;17.60;;;;;;;;;;4446224;27;316607;31
2023/11/22 04:28:27;;;;;;;30.07;16.80;;;;;;;;;;4334363;33;317632;-87
2023/11/22 04:30:55;;;;;;;26.83;17.23;;;;;;;;;;4323403;33;317688;-86
2023/11/22 04:33:22;;;;;;;32.30;17.77;;;;;;;;;;4336021;33;318198;-85
2023/11/22 04:35:50;;;;;;;27.07;17.20;;;;;;;;;;4325162;33;317618;-86
2023/11/22 04:38:18;;;;;;;27.30;16.97;;;;;;;;;;4335740;33;318024;-86
2023/11/22 04:40:46;;;;;;;29.97;18.23;;;;;;;;;;4327046;33;318428;-87
2023/11/22 04:43:16;;;;;;;27.93;16.90;;;;;;;;;;4340562;33;317774;-87
2023/11/22 04:45:48;;;;;;;26.10;17.13;;;;;;;;;;4328823;33;317385;-86
2023/11/22 04:48:16;;;;;;;24.10;16.37;;;;;;;;;;4334196;33;317451;-87
2023/11/22 04:50:43;;;;;;;22.20;16.03;;;;;;;;;;4320902;32;317577;-87
2023/11/22 04:53:11;;;;;;;22.20;15.43;;;;;;;;;;4337870;33;318041;-86
2023/11/22 04:55:39;;;;;;;27.43;17.63;;;;;;;;;;4328522;32;316462;-88
2023/11/22 04:58:08;;;;;;;25.57;17.23;;;;;;;;;;4342988;33;317517;-87
2023/11/22 05:00:36;;;;;;;27.57;16.50;;;;;;;;;;4328490;33;317940;-87
2023/11/22 05:03:06;;;;;;;27.40;16.83;;;;;;;;;;4336666;33;317372;-86
2023/11/22 05:05:33;;;;;;;25.80;16.23;;;;;;;;;;4340872;33;317670;-87
2023/11/22 05:08:03;;;;;;;31.23;16.70;;;;;;;;;;4329616;33;416791;-87
2023/11/22 05:10:30;;;;;;;31.57;18.50;;;;;;;;;;4339638;33;317567;-86
2023/11/22 05:13:00;;;;;;;26.37;18.70;;;;;;;;;;4329654;33;317574;-87
2023/11/22 05:15:27;;;;;;;30.77;20.67;;;;;;;;;;4337677;33;317548;-87
2023/11/22 05:17:56;;;;;;;33.83;19.97;;;;;;;;;;4328727;33;318361;-87
2023/11/22 05:20:25;;;;;;;33.03;20.93;;;;;;;;;;4338969;33;317904;-87
2023/11/22 05:22:53;;;;;;;30.83;20.43;;;;;;;;;;4329684;32;318073;-89
2023/11/22 05:25:21;;;;;;;37.50;21.93;;;;;;;;;;4338841;33;317898;-90
2023/11/22 05:27:50;;;;;;;86.80;54.43;;;;;;;;;;4325802;33;318370;-89
2023/11/22 05:30:18;;;;;;;63.33;40.30;;;;;;;;;;4332202;33;318251;-89
2023/11/22 05:32:46;;;;;;;56.37;33.23;;;;;;;;;;4314115;33;317899;-89
2023/11/22 05:35:14;;;;;;;57.30;33.37;;;;;;;;;;4325715;33;318101;-87
2023/11/22 05:37:44;;;;;;;52.47;32.77;;;;;;;;;;4316766;32;318070;-88
2023/11/22 05:40:14;;;;;;;48.50;33.33;;;;;;;;;;4328185;33;318214;-89
2023/11/22 05:42:41;;;;;;;36.83;25.43;;;;;;;;;;4317071;33;318189;-88
2023/11/22 05:45:10;;;;;;;42.87;28.20;;;;;;;;;;4328406;33;318056;-86
2023/11/22 05:47:38;;;;;;;46.60;29.07;;;;;;;;;;4315868;33;318138;-87
2023/11/22 05:50:06;;;;;;;41.93;26.73;;;;;;;;;;4325368;33;318118;-87
2023/11/22 05:52:34;;;;;;;44.57;30.03;;;;;;;;;;4326132;32;318293;-87
2023/11/22 05:55:04;;;;;;;46.87;31.33;;;;;;;;;;4314793;33;388411;-87
2023/11/22 05:57:31;;;;;;;44.03;30.33;;;;;;;;;;4325765;33;318238;-88
2023/11/22 05:59:59;;;;;;;53.70;31.57;;;;;;;;;;4315360;33;318485;-87
2023/11/22 06:02:26;;;;;;;53.47;37.20;;;;;;;;;;4325015;33;318489;-88
2023/11/22 06:04:54;;;;;;;47.00;31.73;;;;;;;;;;4316664;33;318047;-89
2023/11/22 06:07:22;;;;;;;46.77;32.07;;;;;;;;;;4313202;33;318797;-87
2023/11/22 06:09:50;;;;;;;52.73;32.57;;;;;;;;;;4315632;33;318887;-89
2023/11/22 06:12:20;;;;;;;47.13;34.03;;;;;;;;;;4311971;33;318392;-88
2023/11/22 06:14:48;;;;;;;57.93;38.23;;;;;;;;;;4315255;33;318278;-87
2023/11/22 06:17:16;;;;;;;64.73;41.73;;;;;;;;;;4327095;33;318553;-87
2023/11/22 06:19:43;;;;;;;64.57;41.40;;;;;;;;;;4312925;33;318529;-85
2023/11/22 06:22:11;;;;;;;62.07;42.47;;;;;;;;;;4319501;33;318745;-87
2023/11/22 06:24:39;;;;;;;72.33;43.13;;;;;;;;;;4315184;32;318420;-85
2023/11/22 06:27:07;;;;;;;65.93;43.77;;;;;;;;;;4324798;33;318615;-85
2023/11/22 06:29:38;;;;;;;68.75;43.30;;;;;;;;;;4321386;33;320176;-89
2023/11/22 06:32:07;;;;;;;64.70;41.07;;;;;;;;;;4326185;33;319443;-85
2023/11/22 06:34:36;;;;;;;78.50;51.43;;;;;;;;;;4324780;33;319421;-89
2023/11/22 06:37:04;;;;;;;69.13;45.73;;;;;;;;;;4331150;33;318641;-84
2023/11/22 06:39:32;;;;;;;132.27;65.03;;;;;;;;;;4329522;33;318910;-85
2023/11/22 06:42:02;;;;;;;614.83;306.33;;;;;;;;;;4318354;32;320036;-86
2023/11/22 06:44:34;;;;;;;166.03;79.43;;;;;;;;;;4320292;33;321368;-86
2023/11/22 06:47:07;;;;;;;82.87;48.33;;;;;;;;;;4312339;32;422104;-85
2023/11/22 06:49:37;;;;;;;81.32;48.97;;;;;;;;;;4324894;33;319045;-87
2023/11/22 06:52:10;;;;;;;106.70;58.50;;;;;;;;;;4322960;32;318761;-85
2023/11/22 06:54:38;;;;;;;108.43;60.73;;;;;;;;;;4310313;33;357746;-85
2023/11/22 06:57:06;;;;;;;113.23;62.30;;;;;;;;;;4329702;32;319978;-85
2023/11/22 06:59:36;;;;;;;104.70;59.53;;;;;;;;;;4331011;33;320249;-85
2023/11/22 07:02:08;;;;;;;87.57;51.87;;;;;;;;;;4313332;33;419451;-87
2023/11/22 07:04:37;;;;;;;80.70;48.60;;;;;;;;;;4305350;32;319171;-87
2023/11/22 07:07:05;;;;;;;70.57;46.13;;;;;;;;;;4325489;33;319254;-83
2023/11/22 07:09:34;;;;;;;87.93;50.63;;;;;;;;;;4323427;33;318997;-85
2023/11/22 07:12:02;;;;;;;99.60;60.90;;;;;;;;;;4312757;33;390033;-82
2023/11/22 07:14:30;;;;;;;97.47;58.47;;;;;;;;;;4325176;33;348438;-86
2023/11/22 07:16:59;;;;;;;103.33;60.00;;;;;;;;;;4314406;33;319256;-86
2023/11/22 07:19:29;;;;;;;107.13;56.53;;;;;;;;;;4325037;33;320595;-83
2023/11/22 07:21:57;;;;;;;111.23;66.07;;;;;;;;;;4314306;33;320472;-85
2023/11/22 07:24:25;;;;;;;115.60;68.70;;;;;;;;;;4325357;33;320190;-84
2023/11/22 07:26:53;;;;;;;118.27;67.67;;;;;;;;;;4313805;33;320297;-84
2023/11/22 07:29:23;;;;;;;112.93;62.37;;;;;;;;;;4325232;33;319980;-84
2023/11/22 07:31:51;;;;;;;93.67;58.83;;;;;;;;;;4314469;33;320300;-85
2023/11/22 07:34:19;;;;;;;90.73;58.97;;;;;;;;;;4325407;32;319322;-86
2023/11/22 07:36:47;;;;;;;91.13;51.27;;;;;;;;;;4314982;33;319468;-86
2023/11/22 07:39:19;;;;;;;88.93;54.23;;;;;;;;;;4325826;33;319675;-83
2023/11/22 07:41:48;;;;;;;101.97;62.63;;;;;;;;;;4311628;33;319431;-83
2023/11/22 07:44:16;;;;;;;116.13;70.07;;;;;;;;;;4326132;33;319440;-83
2023/11/22 07:46:45;;;;;;;133.10;72.97;;;;;;;;;;4312827;33;320013;-84
2023/11/22 07:49:13;;;;;;;113.67;71.17;;;;;;;;;;4325022;33;320101;-85
2023/11/22 07:51:41;;;;;;;114.77;71.13;;;;;;;;;;4314054;32;320132;-84
2023/11/22 07:54:12;;;;;;;104.53;64.20;;;;;;;;;;4324254;33;320431;-84
2023/11/22 07:56:39;;;;;;;93.73;61.13;;;;;;;;;;4313074;33;355342;-86
2023/11/22 07:59:07;;;;;;;124.37;75.73;;;;;;;;;;4310731;33;319402;-85
2023/11/22 08:01:35;;;;;;;106.97;68.63;;;;;;;;;;4319809;33;320003;-88
2023/11/22 08:04:02;;;;;;;103.27;61.20;;;;;;;;;;4323540;33;342453;-85
2023/11/22 08:06:30;;;;;;;96.77;62.17;;;;;;;;;;4324150;33;320336;-86
2023/11/22 08:09:00;;;;;;;113.27;68.67;;;;;;;;;;4314588;33;319456;-84
2023/11/22 08:11:31;;;;;;;102.73;62.20;;;;;;;;;;4325151;33;319920;-84
2023/11/22 08:14:00;;;;;;;110.10;60.90;;;;;;;;;;4305819;33;320403;-84
2023/11/22 08:16:29;;;;;;;105.60;67.77;;;;;;;;;;4311326;33;320428;-84
2023/11/22 08:18:56;;;;;;;124.77;72.63;;;;;;;;;;4312302;33;320632;-84
2023/11/22 08:21:24;;;;;;;119.70;72.80;;;;;;;;;;4325242;33;320287;-84
2023/11/22 08:23:53;;;;;;;234.20;128.17;;;;;;;;;;4312456;33;320319;-84
2023/11/22 08:26:20;;;;;;;120.77;73.40;;;;;;;;;;4324599;33;321460;-85
2023/11/22 08:28:49;;;;;;;307.03;159.27;;;;;;;;;;4313077;33;320558;-86
2023/11/22 08:31:17;;;;;;;171.27;100.17;;;;;;;;;;4324469;33;359658;-85
2023/11/22 08:33:44;;;;;;;135.40;81.93;;;;;;;;;;4300674;33;321149;-85
2023/11/22 08:36:12;;;;;;;118.80;70.30;;;;;;;;;;4324612;33;320385;-85
2023/11/22 08:38:40;;;;;;;109.50;64.23;;;;;;;;;;4312664;33;322521;-84
2023/11/22 08:41:13;;;;;;;104.10;66.03;;;;;;;;;;4324995;33;320435;-85
2023/11/22 08:43:40;;;;;;;119.50;76.57;;;;;;;;;;4314418;33;320502;-86
2023/11/22 08:46:10;;;;;;;128.80;80.70;;;;;;;;;;4324419;33;320294;-88
2023/11/22 08:48:38;;;;;;;137.80;82.17;;;;;;;;;;4314154;33;323406;-88
2023/11/22 08:51:07;;;;;;;138.13;81.07;;;;;;;;;;4325268;33;320410;-86
2023/11/22 08:53:35;;;;;;;126.80;78.63;;;;;;;;;;4317432;33;320417;-86
2023/11/22 08:56:05;;;;;;;123.90;80.53;;;;;;;;;;4323646;33;320108;-86
2023/11/22 08:58:33;;;;;;;123.07;78.50;;;;;;;;;;4324929;33;319912;-86
2023/11/22 09:01:00;;;;;;;123.87;79.80;;;;;;;;;;4310546;33;420086;-85
2023/11/22 09:03:29;;;;;;;118.43;80.93;;;;;;;;;;4324537;33;319473;-86
2023/11/22 09:05:57;;;;;;;117.23;76.53;;;;;;;;;;4313271;33;320257;-84
2023/11/22 09:08:25;;;;;;;106.03;73.53;;;;;;;;;;4324056;33;320039;-85
2023/11/22 09:10:52;;;;;;;113.27;74.33;;;;;;;;;;4314410;33;320153;-86
2023/11/22 09:13:20;;;;;;;113.00;74.03;;;;;;;;;;4324236;33;319542;-86
2023/11/22 09:15:48;;;;;;;121.10;74.07;;;;;;;;;;4314097;33;320514;-86
2023/11/22 09:18:16;;;;;;;120.77;70.03;;;;;;;;;;4323514;33;320204;-86
2023/11/22 09:20:45;;;;;;;94.70;62.87;;;;;;;;;;4313702;33;320094;-87
2023/11/22 09:23:14;;;;;;;104.10;64.47;;;;;;;;;;4323952;33;319364;-85
2023/11/22 09:25:41;;;;;;;103.73;61.43;;;;;;;;;;4313877;33;320362;-85
2023/11/22 09:28:09;;;;;;;100.73;61.93;;;;;;;;;;4324309;33;320156;-84
2023/11/22 09:30:38;;;;;;;95.67;62.17;;;;;;;;;;4314367;33;320270;-82
2023/11/22 09:33:08;;;;;;;96.37;60.20;;;;;;;;;;4324305;33;319528;-85
2023/11/22 09:35:36;;;;;;;95.40;63.13;;;;;;;;;;4311944;33;319293;-84
2023/11/22 09:38:09;;;;;;;106.30;67.63;;;;;;;;;;4324477;33;318846;-84
2023/11/22 09:40:37;;;;;;;97.97;64.80;;;;;;;;;;4315679;33;320308;-84
2023/11/22 09:43:05;;;;;;;93.83;61.90;;;;;;;;;;4325372;33;319212;-86
2023/11/22 09:45:34;;;;;;;108.67;66.03;;;;;;;;;;4326231;33;319199;-87
2023/11/22 09:48:04;;;;;;;103.27;65.27;;;;;;;;;;4313461;33;419660;-87
2023/11/22 09:50:37;;;;;;;106.13;68.80;;;;;;;;;;4327121;33;319960;-86
2023/11/22 09:53:11;;;;;;;114.07;70.13;;;;;;;;;;4315125;33;419891;-85
2023/11/22 09:55:42;;;;;;;116.50;71.87;;;;;;;;;;4317365;33;320231;-84
2023/11/22 09:58:12;;;;;;;123.77;70.43;;;;;;;;;;4327606;33;319960;-87
2023/11/22 10:00:42;;;;;;;92.97;58.93;;;;;;;;;;4314360;33;320445;-87
2023/11/22 10:03:13;;;;;;;100.27;63.10;;;;;;;;;;4326658;33;319409;-86
2023/11/22 10:05:43;;;;;;;98.73;64.67;;;;;;;;;;4315838;33;319934;-88
2023/11/22 10:08:14;;;;;;;98.87;61.63;;;;;;;;;;4327689;33;319173;-84
2023/11/22 10:10:44;;;;;;;90.50;57.83;;;;;;;;;;4316748;33;319240;-83
2023/11/22 10:13:12;;;;;;;74.87;52.27;;;;;;;;;;4327341;33;318579;-85
2023/11/22 10:15:40;;;;;;;74.97;46.77;;;;;;;;;;4307086;32;318964;-85
2023/11/22 10:18:09;;;;;;;73.30;41.27;;;;;;;;;;4326635;33;320044;-84
2023/11/22 10:20:41;;;;;;;54.40;35.10;;;;;;;;;;4316641;33;319088;-85
2023/11/22 10:23:17;;;;;;;67.73;39.17;;;;;;;;;;4312957;33;319005;-83
2023/11/22 10:25:49;;;;;;;53.47;33.90;;;;;;;;;;4315168;33;337432;-86
2023/11/22 10:28:17;;;;;;;55.73;36.03;;;;;;;;;;4318074;33;319429;-88
2023/11/22 10:30:45;;;;;;;55.47;37.67;;;;;;;;;;4315406;33;318971;-83
2023/11/22 10:33:15;;;;;;;57.97;35.27;;;;;;;;;;4327628;33;319125;-83
2023/11/22 10:35:44;;;;;;;53.17;34.87;;;;;;;;;;4316183;33;319314;-83
2023/11/22 10:38:15;;;;;;;54.10;33.47;;;;;;;;;;4329235;33;319093;-82
2023/11/22 10:40:45;;;;;;;53.37;33.13;;;;;;;;;;4323894;33;319158;-82
2023/11/22 10:43:13;;;;;;;50.93;31.53;;;;;;;;;;4331233;33;319189;-85
2023/11/22 10:45:44;;;;;;;50.60;31.93;;;;;;;;;;4316253;32;318571;-82
2023/11/22 10:48:15;;;;;;;52.47;33.20;;;;;;;;;;4312230;33;319329;-83
2023/11/22 10:50:44;;;;;;;50.10;31.97;;;;;;;;;;4296957;33;319500;-82
2023/11/22 10:53:14;;;;;;;58.70;33.37;;;;;;;;;;4325729;33;318994;-82
2023/11/22 10:55:46;;;;;;;48.60;32.33;;;;;;;;;;4316299;33;319189;-83
2023/11/22 10:58:15;;;;;;;57.60;36.57;;;;;;;;;;4325664;33;319227;-84
2023/11/22 11:00:43;;;;;;;61.07;39.83;;;;;;;;;;4301673;33;319167;-84
2023/11/22 11:03:15;;;;;;;59.10;35.50;;;;;;;;;;4325014;33;318871;-82
2023/11/22 11:05:49;;;;;;;58.03;34.37;;;;;;;;;;4302647;33;319065;-84
2023/11/22 11:08:20;;;;;;;46.07;29.00;;;;;;;;;;4323742;33;319247;-84
2023/11/22 11:10:49;;;;;;;43.00;26.93;;;;;;;;;;4315065;33;319657;-83
2023/11/22 11:13:18;;;;;;;39.37;25.63;;;;;;;;;;4326238;33;319136;-85
2023/11/22 11:15:47;;;;;;;29.83;22.13;;;;;;;;;;4315789;33;319300;-81
2023/11/22 11:18:16;;;;;;;33.37;22.00;;;;;;;;;;4326406;33;319228;-84
2023/11/22 11:20:49;;;;;;;38.10;22.10;;;;;;;;;;4315642;32;319241;-84
2023/11/22 11:23:19;;;;;;;40.23;24.07;;;;;;;;;;4325345;33;356470;-88
2023/11/22 11:25:49;;;;;;;34.60;22.90;;;;;;;;;;4315483;33;319278;-86
2023/11/22 11:28:16;;;;;;;33.43;22.77;;;;;;;;;;4325351;33;318600;-81
2023/11/22 11:30:45;;;;;;;35.40;22.30;;;;;;;;;;4314151;33;319102;-82
2023/11/22 11:33:17;;;;;;;35.90;20.00;;;;;;;;;;4325469;33;319129;-86
2023/11/22 11:35:47;;;;;;;28.57;16.00;;;;;;;;;;4315426;32;319040;-83
2023/11/22 11:38:15;;;;;;;24.70;16.20;;;;;;;;;;4325897;33;319151;-84
2023/11/22 11:40:46;;;;;;;19.93;14.53;;;;;;;;;;4313837;32;319308;-84
2023/11/22 11:43:14;;;;;;;29.40;18.73;;;;;;;;;;4323899;33;337791;-85
2023/11/22 11:45:46;;;;;;;34.30;19.47;;;;;;;;;;4315608;33;319439;-84
2023/11/22 11:48:15;;;;;;;30.87;19.00;;;;;;;;;;4317845;33;319070;-84
2023/11/22 11:50:42;;;;;;;30.73;19.43;;;;;;;;;;4314097;33;319364;-85
2023/11/22 11:53:10;;;;;;;32.43;19.67;;;;;;;;;;4324879;33;319338;-84
2023/11/22 11:55:40;;;;;;;24.30;16.37;;;;;;;;;;4310503;33;319294;-86
2023/11/22 11:58:10;;;;;;;25.57;17.97;;;;;;;;;;4324930;33;319346;-84
2023/11/22 12:00:40;;;;;;;55.17;30.03;;;;;;;;;;4308982;32;318560;-83
2023/11/22 12:03:10;;;;;;;29.43;18.10;;;;;;;;;;4317301;33;318759;-86
2023/11/22 12:05:38;;;;;;;23.07;15.37;;;;;;;;;;4313927;33;319186;-83
2023/11/22 12:08:06;;;;;;;22.33;13.53;;;;;;;;;;4325873;33;319188;-85
2023/11/22 12:10:35;;;;;;;16.37;10.07;;;;;;;;;;4325790;33;319184;-86
2023/11/22 12:13:02;;;;;;;12.73;9.47;;;;;;;;;;4311861;33;418074;-88
2023/11/22 12:15:31;;;;;;;14.13;7.83;;;;;;;;;;4325511;33;318187;-88
2023/11/22 12:18:00;;;;;;;12.87;7.57;;;;;;;;;;4315668;33;318455;-86
2023/11/22 12:20:31;;;;;;;10.43;7.37;;;;;;;;;;4324690;33;317496;-83
2023/11/22 12:23:00;;;;;;;15.13;8.13;;;;;;;;;;4307507;33;317701;-84
2023/11/22 12:25:28;;;;;;;14.10;7.93;;;;;;;;;;4325610;33;317677;-84
2023/11/22 12:27:56;;;;;;;10.20;6.73;;;;;;;;;;4315443;33;318648;-84
2023/11/22 12:30:33;;;;;;;22.70;12.23;;;;;;;;;;4325512;33;318211;-83
2023/11/22 12:33:04;;;;;;;23.03;13.57;;;;;;;;;;4312442;33;418534;-82
2023/11/22 12:35:33;;;;;;;11.33;7.20;;;;;;;;;;4325691;33;319834;-82
2023/11/22 12:38:01;;;;;;;15.20;12.53;;;;;;;;;;4312154;33;416706;-84
2023/11/22 12:40:32;;;;;;;11.30;9.10;;;;;;;;;;4325234;33;319251;-86
2023/11/22 12:43:01;;;;;;;9.67;6.90;;;;;;;;;;4314988;33;317481;-85
2023/11/22 12:45:29;;;;;;;7.90;5.30;;;;;;;;;;4323716;33;317086;-82
2023/11/22 12:48:00;;;;;;;10.73;5.87;;;;;;;;;;4314458;33;317114;-82
2023/11/22 12:50:37;;;;;;;9.93;6.20;;;;;;;;;;4325690;33;318073;-82
2023/11/22 12:53:12;;;;;;;9.27;6.97;;;;;;;;;;4311875;33;416967;-83
2023/11/22 12:55:44;;;;;;;10.63;7.13;;;;;;;;;;4314883;33;317183;-83
2023/11/22 12:58:13;;;;;;;10.50;6.87;;;;;;;;;;4325576;33;317757;-82
2023/11/22 13:00:42;;;;;;;8.33;5.33;;;;;;;;;;4314738;33;318250;-83
2023/11/22 13:03:11;;;;;;;7.13;5.53;;;;;;;;;;4325596;33;316878;-86
2023/11/22 13:05:38;;;;;;;11.43;5.60;;;;;;;;;;4315551;33;316650;-79
2023/11/22 13:08:06;;;;;;;13.40;6.80;;;;;;;;;;4315444;33;318376;-79
2023/11/22 13:10:34;;;;;;;8.17;5.53;;;;;;;;;;4324922;33;338088;-82
2023/11/22 13:13:02;;;;;;;8.17;5.40;;;;;;;;;;4311003;33;416094;-81
2023/11/22 13:15:30;;;;;;;15.33;5.43;;;;;;;;;;4326631;33;317019;-82
2023/11/22 13:17:58;;;;;;;11.40;6.00;;;;;;;;;;4316357;33;318119;-84
2023/11/22 13:20:28;;;;;;;11.83;6.17;;;;;;;;;;4328387;33;318045;-81
2023/11/22 13:22:56;;;;;;;8.40;6.23;;;;;;;;;;4316425;33;318508;-83
2023/11/22 13:25:23;;;;;;;8.37;5.60;;;;;;;;;;4327514;33;317061;-84
2023/11/22 13:27:52;;;;;;;11.97;5.20;;;;;;;;;;4316588;33;317206;-82
2023/11/22 13:30:22;;;;;;;9.07;5.97;;;;;;;;;;4326397;33;318021;-86
2023/11/22 13:32:50;;;;;;;8.83;5.00;;;;;;;;;;4316607;33;316944;-86
2023/11/22 13:35:19;;;;;;;16.40;6.50;;;;;;;;;;4328004;33;317341;-87
2023/11/22 13:37:49;;;;;;;11.60;7.57;;;;;;;;;;4318011;33;317804;-83
2023/11/22 13:40:21;;;;;;;11.57;6.43;;;;;;;;;;4327516;33;318069;-91
2023/11/22 13:42:52;;;;;;;15.40;8.27;;;;;;;;;;4316170;33;318093;-83
2023/11/22 13:45:20;;;;;;;15.23;6.97;;;;;;;;;;4327655;33;322034;-82
2023/11/22 13:47:50;;;;;;;15.00;8.07;;;;;;;;;;4316681;33;318330;-81
2023/11/22 13:50:21;;;;;;;13.90;9.03;;;;;;;;;;4327824;33;318333;-80
2023/11/22 13:52:50;;;;;;;29.67;17.30;;;;;;;;;;4317544;33;326414;-81
2023/11/22 13:55:22;;;;;;;46.60;25.10;;;;;;;;;;4327371;33;319334;-83
2023/11/22 13:57:50;;;;;;;41.63;21.63;;;;;;;;;;4315976;33;347241;-81
2023/11/22 14:00:19;;;;;;;51.83;24.93;;;;;;;;;;4327613;33;318593;-86
2023/11/22 14:02:47;;;;;;;34.20;19.43;;;;;;;;;;4315681;33;319455;-85
2023/11/22 14:05:15;;;;;;;28.30;16.97;;;;;;;;;;4331148;33;319360;-82
2023/11/22 14:07:44;;;;;;;30.83;16.33;;;;;;;;;;4321424;33;319192;-80
2023/11/22 14:10:16;;;;;;;27.63;15.33;;;;;;;;;;4330577;33;319534;-81
2023/11/22 14:12:44;;;;;;;31.47;15.47;;;;;;;;;;4316061;32;319179;-79
2023/11/22 14:15:11;;;;;;;32.20;16.20;;;;;;;;;;4325985;33;319572;-82
2023/11/22 14:17:40;;;;;;;28.47;15.43;;;;;;;;;;4312861;33;348974;-81